Sweeney Granite Mountains, California Weather observations

Data are for 10 minute period ending at time listed.
 Day   Time   Solar   Ave.   Ave.  Ave.  Vector  Max.   Baro.   Total    
  of    of     Rad.   Air    Rel.  Wind   Wind   Wind  Press.  Precip.   
Year   Day            Temp.  Hum.  Speed  Dir.   Gust                    
2017   (PST)  Kw/m2    F      %     mph   deg.    mph    mb.     in.     
-------------------------------------------------------------------------
  54    8:10   0.31   34.9    39    5.5   340    12.7   866.7    0.00 
  54    8:20   0.35   34.7    40    9.8   314    18.0   866.7    0.00 
  54    8:30   0.38   34.9    39   11.6   302    18.7   866.7    0.00 
  54    8:40   0.42   35.2    39    8.5   292    18.3   866.7    0.00 
  54    8:50   0.45   34.8    39   10.5   323    18.8   866.6    0.00 
  54    9:00   0.48   35.3    39   12.5   308    18.1   866.6    0.00 
  54    9:10   0.51   35.4    40   14.0   305    23.3   866.4    0.00 
  54    9:20   0.54   35.5    40   16.6   307    25.1   866.2    0.00 
  54    9:30   0.57   35.9    40   18.6   303    26.2   866.2    0.00 
  54    9:40   0.59   36.1    41   16.2   313    26.8   866.3    0.00 
  54    9:50   0.61   36.5    40   17.8   312    25.6   866.3    0.00 
  54   10:00   0.64   37.1    40   13.2   317    22.6   866.4    0.00 
  54   10:10   0.66   37.6    37   15.0   321    22.7   866.4    0.00 
  54   10:20   0.68   38.2    36   15.1   317    23.5   866.4    0.00 
  54   10:30   0.69   38.2    37   14.5   314    24.4   866.4    0.00 
  54   10:40   0.71   38.4    36   15.0   319    24.8   866.4    0.00 
  54   10:50   0.73   38.8    36   14.7   306    21.3   866.4    0.00 
  54   11:00   0.74   39.0    34   14.4   313    21.5   866.4    0.00 
  54   11:10   0.75   39.5    32   13.3   308    21.1   866.3    0.00 
  54   11:20   0.76   39.7    32   12.4   308    21.3   866.4    0.00 
  54   11:30   0.77   40.0    31   12.7   300    20.6   866.3    0.00 
  54   11:40   0.78   40.0    30   10.5   302    17.4   866.3    0.00 
  54   11:50   0.78   41.0    30    9.5   302    25.2   866.2    0.00 
  54   12:00   0.78   41.1    29   11.5   295    25.0   866.0    0.00 
  54   12:10   0.78   40.8    26    9.3   311    18.4   865.9    0.00 
  54   12:20   0.78   40.5    26   13.1   297    27.0   865.8    0.00 
  54   12:30   0.78   40.6    26   11.6   309    20.5   865.8    0.00 
  54   12:40   0.77   40.8    27    9.9   286    20.0   865.6    0.00 
  54   12:50   0.76   40.9    27    9.8   322    22.4   865.6    0.00 
  54   13:00   0.75   40.4    29   13.8   309    22.5   865.5    0.00 
  54   13:10   0.72   40.2    28   10.9   310    20.1   865.5    0.00 
  54   13:20   0.72   40.1    29   10.8   317    18.5   865.5    0.00 
  54   13:30   0.71   40.7    30    8.9   298    19.9   865.4    0.00 
  54   13:40   0.69   40.9    28    8.1   304    20.3   865.3    0.00 
  54   13:50   0.68   40.9    29    8.1   307    16.4   865.3    0.00 
  54   14:00   0.66   41.6    28    7.7   289    19.1   865.3    0.00 
  54   14:10   0.64   41.6    28    4.1   359     9.9   865.1    0.00 
  54   14:20   0.62   41.6    27    7.7   274    17.7   865.1    0.00 
  54   14:30   0.59   41.7    28    5.1   229    11.8   865.1    0.00 
  54   14:40   0.57   41.6    28    8.0   266    16.1   865.0    0.00 
  54   14:50   0.54   41.5    28    5.1   302    13.9   865.2    0.00 
  54   15:00   0.51   42.1    28    3.6   131    11.7   865.1    0.00 
  54   15:10   0.48   42.8    28    3.6   274     8.0   865.3    0.00 
  54   15:20   0.45   42.2    28    5.4   129    11.5   865.3    0.00 
  54   15:30   0.42   43.3    27    5.4   261    15.1   865.2    0.00 
  54   15:40   0.38   41.6    26    2.6    61     9.4   865.2    0.00 
  54   15:50   0.09   40.7    27    3.2   222     7.4   865.3    0.00 
  54   16:00   0.03   39.6    30    8.4   280    15.1   865.1    0.00 
  54   16:10   0.03   38.9    30    6.5   261    13.0   865.1    0.00 
  54   16:20   0.03   39.1    31    9.8   281    19.1   865.1    0.00 
  54   16:30   0.02   38.7    31    7.9   273    13.9   865.2    0.00 
  54   16:40   0.01   38.5    32    5.5   269    12.4   865.4    0.00 
  54   16:50   0.01   38.4    33    7.5   268    14.2   865.5    0.00 
  54   17:00   0.01   38.4    34    7.8   284    14.9   865.6    0.00 
  54   17:10   0.01   38.2    34    4.2   270    14.2   865.7    0.00 
  54   17:20   0.01   38.1    34    6.6   248    12.7   865.6    0.00 
  54   17:30   0.00   37.9    35    4.4   266    11.8   865.6    0.00 
  54   17:40   0.00   37.6    36    6.2   292    12.5   865.7    0.00 
  54   17:50   0.00   37.7    35    8.2   270    21.0   865.9    0.00 
  54   18:00   0.00   37.7    35    4.8   240    10.2   866.0    0.00 
  54   18:10   0.00   37.7    35    3.2   239    11.4   866.0    0.00 
  54   18:20   0.00   37.5    36    4.0   207     8.3   866.0    0.00 
  54   18:30   0.00   37.0    37    0.9   155     3.4   866.1    0.00 
  54   18:40   0.00   36.3    39    4.3   134     8.1   866.1    0.00 
  54   18:50   0.00   36.8    38    3.5   244     7.7   866.1    0.00 
  54   19:00   0.00   37.1    37    6.5   265    14.5   866.1    0.00 
  54   19:10   0.00   36.8    37    5.3   290    12.1   865.9    0.00 
  54   19:20   0.00   36.9    37    8.3   330    18.2   866.0    0.00 
  54   19:30   0.00   36.3    39   11.2   311    19.8   866.0    0.00 
  54   19:40   0.00   35.9    39   12.3   308    21.2   866.0    0.00 
  54   19:50   0.00   35.8    39   14.7   304    21.9   866.1    0.00 
  54   20:00   0.00   36.0    39   15.4   306    23.4   866.1    0.00 
  54   20:10   0.00   36.0    39   14.1   303    25.1   866.2    0.00 
  54   20:20   0.00   35.8    39   12.9   299    25.3   866.3    0.00 
  54   20:30   0.00   35.8    39   12.2   298    19.2   866.4    0.00 
  54   20:40   0.00   35.7    40   10.7   290    18.6   866.6    0.00 
  54   20:50   0.00   35.4    41   11.5   288    20.1   866.7    0.00 
  54   21:00   0.00   35.5    40    8.9   288    17.5   866.9    0.00 
  54   21:10   0.00   35.6    40    7.8   287    16.3   867.0    0.00 
  54   21:20   0.00   35.8    40    6.7   298    17.3   867.1    0.00 
  54   21:30   0.00   36.0    40    4.3    95    10.6   867.2    0.00 
  54   21:40   0.00   35.8    40    4.7   219    10.0   867.3    0.00 
  54   21:50   0.00   35.6    40    4.0   257     6.4   867.4    0.00 
  54   22:00   0.00   34.5    44    4.1    44     8.7   867.5    0.00 
  54   22:10   0.00   34.0    46    6.2   353    13.1   867.5    0.00 
  54   22:20   0.00   33.5    46   10.5   322    17.8   867.3    0.00 
  54   22:30   0.00   33.8    44   11.4   312    17.4   867.3    0.00 
  54   22:40   0.00   33.9    44   11.0   308    16.4   867.3    0.00 
  54   22:50   0.00   34.0    43   10.5   299    16.2   867.4    0.00 
  54   23:00   0.00   33.6    45    8.9   288    13.4   867.6    0.00 
  54   23:10   0.00   33.6    44    9.6   297    15.2   867.6    0.00 
  54   23:20   0.00   33.5    44    8.7   307    12.3   867.7    0.00 
  54   23:30   0.00   33.8    42    9.1   315    13.2   867.8    0.00 
  54   23:40   0.00   34.1    42    9.8   323    14.0   867.7    0.00 
  54   23:50   0.00   34.2    41    9.3   319    12.5   867.8    0.00 
  55    0:00   0.00   34.0    41   10.1   311    13.6   867.8    0.00 
  55    0:10   0.00   34.1    41   11.8   305    17.9   867.8    0.00 
  55    0:20   0.00   33.8    42   12.7   309    17.0   867.8    0.00 
  55    0:30   0.00   33.7    42   12.1   303    16.7   867.8    0.00 
  55    0:40   0.00   33.3    44   11.1   291    15.3   867.9    0.00 
  55    0:50   0.00   33.5    44   11.2   300    16.8   867.9    0.00 
  55    1:00   0.00   33.6    44    8.8   316    14.7   868.0    0.00 
  55    1:10   0.00   33.4    44    9.9   304    16.7   868.1    0.00 
  55    1:20   0.00   33.2    45   12.9   300    18.6   868.1    0.00 
  55    1:30   0.00   33.1    45   14.2   302    19.1   868.0    0.00 
  55    1:40   0.00   33.1    45   15.8   308    21.2   867.9    0.00 
  55    1:50   0.00   33.2    45   14.6   310    20.6   867.9    0.00 
  55    2:00   0.00   32.9    46   14.1   308    19.7   867.8    0.00 
  55    2:10   0.00   33.0    46   14.9   311    21.9   867.8    0.00 
  55    2:20   0.00   33.0    46   15.0   308    20.8   867.9    0.00 
  55    2:30   0.00   32.9    47   15.0   310    20.1   867.9    0.00 
  55    2:40   0.00   33.0    47   15.0   313    18.7   867.8    0.00 
  55    2:50   0.00   33.0    47   14.2   310    19.5   867.8    0.00 
  55    3:00   0.00   32.8    48   14.5   312    18.6   867.9    0.00 
  55    3:10   0.00   32.8    48   14.2   312    18.3   868.0    0.00 
  55    3:20   0.00   33.4    46   14.1   312    17.8   868.0    0.00 
  55    3:30   0.00   33.2    47   13.9   310    17.4   868.1    0.00 
  55    3:40   0.00   33.6    47   13.6   313    17.1   868.1    0.00 
  55    3:50   0.00   33.8    47   13.3   309    18.6   868.1    0.00 
  55    4:00   0.00   33.8    47   13.3   309    18.6   868.1    0.00 
  55    4:10   0.00   33.7    47   11.8   306    17.1   868.1    0.00 
  55    4:20   0.00   33.7    47   12.7   304    20.2   868.0    0.00 
  55    4:30   0.00   34.1    45   13.4   311    24.0   868.0    0.00 
  55    4:40   0.00   33.9    45   13.8   302    24.9   868.0    0.00 
  55    4:50   0.00   33.7    46   14.0   295    19.4   868.1    0.00 
  55    5:00   0.00   33.6    45   12.7   303    20.2   868.2    0.00 
  55    5:10   0.00   33.8    43   13.6   300    18.0   868.3    0.00 
  55    5:20   0.00   33.7    42   13.8   298    18.3   868.4    0.00 
  55    5:30   0.00   33.8    42   12.4   303    18.3   868.6    0.00 
  55    5:40   0.00   33.8    40    9.8   309    16.5   868.7    0.00 
  55    5:50   0.00   33.8    38    9.2   299    14.6   868.8    0.00 
  55    6:00   0.00   34.2    34    9.2   304    17.2   869.0    0.00 
  55    6:10   0.00   34.0    33   11.1   301    17.4   869.1    0.00 
  55    6:20   0.00   34.0    32   12.7   303    18.9   869.2    0.00 
  55    6:30   0.00   34.2    32   12.5   304    16.9   869.3    0.00 
  55    6:40   0.02   34.4    32   11.1   310    15.1   869.4    0.00 
  55    6:50   0.05   34.9    32   11.2   300    17.7   869.6    0.00 
  55    7:00   0.08   35.2    33   10.2   301    16.7   869.8    0.00 
  55    7:10   0.11   35.8    32    9.4   309    16.3   869.8    0.00 
  55    7:20   0.13   35.9    32    9.9   304    14.9   869.9    0.00 
  55    7:30   0.17   36.2    33    9.9   304    14.8   870.0    0.00 
  55    7:40   0.21   36.8    33    8.1   306    14.2   870.1    0.00 
  55    7:50   0.25   37.6    32    7.3   304    14.1   870.2    0.00 
  55    8:00   0.28   39.0    27    5.8   341    11.3   870.4    0.00 

Return to Sweeney Granite Mountains graphs page.


Western Regional Climate Center,wrcc@dri.edu